sensor_id;sensor_type;location;lat;lon;timestamp;P1;durP1;ratioP1;P2;durP2;ratioP2
64520;SDS011;50896;46.714;17.322;2024-02-28T00:02:04;45.03;;;28.88;;
64520;SDS011;50896;46.714;17.322;2024-02-28T00:04:30;45.83;;;30.35;;
64520;SDS011;50896;46.714;17.322;2024-02-28T00:06:57;47.42;;;30.92;;
64520;SDS011;50896;46.714;17.322;2024-02-28T00:09:25;49.50;;;30.27;;
64520;SDS011;50896;46.714;17.322;2024-02-28T00:11:52;46.65;;;30.33;;
64520;SDS011;50896;46.714;17.322;2024-02-28T00:14:19;51.15;;;31.58;;
64520;SDS011;50896;46.714;17.322;2024-02-28T00:16:46;49.95;;;30.45;;
64520;SDS011;50896;46.714;17.322;2024-02-28T00:19:14;51.22;;;32.53;;
64520;SDS011;50896;46.714;17.322;2024-02-28T00:21:41;49.92;;;32.28;;
64520;SDS011;50896;46.714;17.322;2024-02-28T00:24:08;48.47;;;32.63;;
64520;SDS011;50896;46.714;17.322;2024-02-28T00:26:40;55.65;;;34.40;;
64520;SDS011;50896;46.714;17.322;2024-02-28T00:29:08;53.25;;;32.58;;
64520;SDS011;50896;46.714;17.322;2024-02-28T00:31:35;48.25;;;31.30;;
64520;SDS011;50896;46.714;17.322;2024-02-28T00:34:02;51.45;;;31.05;;
64520;SDS011;50896;46.714;17.322;2024-02-28T00:36:29;49.58;;;32.55;;
64520;SDS011;50896;46.714;17.322;2024-02-28T00:39:13;51.90;;;32.40;;
64520;SDS011;50896;46.714;17.322;2024-02-28T00:41:40;50.97;;;33.00;;
64520;SDS011;50896;46.714;17.322;2024-02-28T00:44:07;53.65;;;34.17;;
64520;SDS011;50896;46.714;17.322;2024-02-28T00:46:35;50.22;;;31.92;;
64520;SDS011;50896;46.714;17.322;2024-02-28T00:49:02;52.85;;;31.88;;
64520;SDS011;50896;46.714;17.322;2024-02-28T00:51:28;54.33;;;34.50;;
64520;SDS011;50896;46.714;17.322;2024-02-28T00:53:55;52.28;;;33.30;;
64520;SDS011;50896;46.714;17.322;2024-02-28T00:56:22;47.20;;;31.23;;
64520;SDS011;50896;46.714;17.322;2024-02-28T00:58:50;48.42;;;31.00;;
64520;SDS011;50896;46.714;17.322;2024-02-28T01:01:17;51.75;;;32.65;;
64520;SDS011;50896;46.714;17.322;2024-02-28T01:03:44;50.85;;;32.65;;
64520;SDS011;50896;46.714;17.322;2024-02-28T01:06:11;48.60;;;32.22;;
64520;SDS011;50896;46.714;17.322;2024-02-28T01:08:38;51.10;;;33.58;;
64520;SDS011;50896;46.714;17.322;2024-02-28T01:11:05;56.45;;;34.78;;
64520;SDS011;50896;46.714;17.322;2024-02-28T01:13:31;51.08;;;33.72;;
64520;SDS011;50896;46.714;17.322;2024-02-28T01:15:58;53.97;;;33.30;;
64520;SDS011;50896;46.714;17.322;2024-02-28T01:18:26;56.42;;;32.65;;
64520;SDS011;50896;46.714;17.322;2024-02-28T01:20:57;53.70;;;33.75;;
64520;SDS011;50896;46.714;17.322;2024-02-28T01:23:24;49.45;;;31.77;;
64520;SDS011;50896;46.714;17.322;2024-02-28T01:25:51;50.35;;;32.05;;
64520;SDS011;50896;46.714;17.322;2024-02-28T01:28:17;55.05;;;33.22;;
64520;SDS011;50896;46.714;17.322;2024-02-28T01:30:44;52.30;;;34.60;;
64520;SDS011;50896;46.714;17.322;2024-02-28T01:33:11;54.58;;;34.47;;
64520;SDS011;50896;46.714;17.322;2024-02-28T01:35:40;51.88;;;32.60;;
64520;SDS011;50896;46.714;17.322;2024-02-28T01:38:07;53.25;;;32.30;;
64520;SDS011;50896;46.714;17.322;2024-02-28T01:40:34;52.20;;;32.25;;
64520;SDS011;50896;46.714;17.322;2024-02-28T01:43:07;49.45;;;31.92;;
64520;SDS011;50896;46.714;17.322;2024-02-28T01:45:34;51.80;;;32.60;;
64520;SDS011;50896;46.714;17.322;2024-02-28T01:48:02;49.60;;;32.25;;
64520;SDS011;50896;46.714;17.322;2024-02-28T01:50:32;52.63;;;33.72;;
64520;SDS011;50896;46.714;17.322;2024-02-28T01:52:59;56.05;;;33.88;;
64520;SDS011;50896;46.714;17.322;2024-02-28T01:55:26;49.85;;;32.05;;
64520;SDS011;50896;46.714;17.322;2024-02-28T01:57:53;50.95;;;32.70;;
64520;SDS011;50896;46.714;17.322;2024-02-28T02:00:21;50.30;;;33.00;;
64520;SDS011;50896;46.714;17.322;2024-02-28T02:02:49;48.03;;;31.10;;
64520;SDS011;50896;46.714;17.322;2024-02-28T02:05:16;54.50;;;34.47;;
64520;SDS011;50896;46.714;17.322;2024-02-28T02:07:48;48.22;;;32.22;;
64520;SDS011;50896;46.714;17.322;2024-02-28T02:10:15;48.78;;;31.38;;
64520;SDS011;50896;46.714;17.322;2024-02-28T02:12:42;46.33;;;30.17;;
64520;SDS011;50896;46.714;17.322;2024-02-28T02:15:09;55.22;;;33.90;;
64520;SDS011;50896;46.714;17.322;2024-02-28T02:17:36;53.92;;;33.50;;
64520;SDS011;50896;46.714;17.322;2024-02-28T02:20:03;53.72;;;34.03;;
64520;SDS011;50896;46.714;17.322;2024-02-28T02:22:38;53.90;;;34.03;;
64520;SDS011;50896;46.714;17.322;2024-02-28T02:25:05;51.85;;;33.35;;
64520;SDS011;50896;46.714;17.322;2024-02-28T02:27:32;49.45;;;32.45;;
64520;SDS011;50896;46.714;17.322;2024-02-28T02:29:59;49.50;;;32.22;;
64520;SDS011;50896;46.714;17.322;2024-02-28T02:32:26;45.72;;;31.75;;
64520;SDS011;50896;46.714;17.322;2024-02-28T02:34:53;52.08;;;31.52;;
64520;SDS011;50896;46.714;17.322;2024-02-28T02:37:20;48.72;;;32.72;;
64520;SDS011;50896;46.714;17.322;2024-02-28T02:39:47;50.70;;;32.97;;
64520;SDS011;50896;46.714;17.322;2024-02-28T02:42:14;50.75;;;31.25;;
64520;SDS011;50896;46.714;17.322;2024-02-28T02:44:42;48.15;;;30.40;;
64520;SDS011;50896;46.714;17.322;2024-02-28T02:47:09;52.25;;;31.52;;
64520;SDS011;50896;46.714;17.322;2024-02-28T02:49:36;47.40;;;31.73;;
64520;SDS011;50896;46.714;17.322;2024-02-28T02:52:03;46.33;;;31.10;;
64520;SDS011;50896;46.714;17.322;2024-02-28T02:54:29;47.42;;;30.58;;
64520;SDS011;50896;46.714;17.322;2024-02-28T02:56:56;51.67;;;31.23;;
64520;SDS011;50896;46.714;17.322;2024-02-28T02:59:23;47.40;;;30.90;;
64520;SDS011;50896;46.714;17.322;2024-02-28T03:01:50;47.22;;;29.58;;
64520;SDS011;50896;46.714;17.322;2024-02-28T03:04:17;46.13;;;28.83;;
64520;SDS011;50896;46.714;17.322;2024-02-28T03:06:44;45.03;;;28.48;;
64520;SDS011;50896;46.714;17.322;2024-02-28T03:09:12;41.45;;;27.85;;
64520;SDS011;50896;46.714;17.322;2024-02-28T03:11:38;44.90;;;28.25;;
64520;SDS011;50896;46.714;17.322;2024-02-28T03:14:05;47.92;;;29.33;;
64520;SDS011;50896;46.714;17.322;2024-02-28T03:16:32;42.22;;;27.50;;
64520;SDS011;50896;46.714;17.322;2024-02-28T03:18:59;39.00;;;26.10;;
64520;SDS011;50896;46.714;17.322;2024-02-28T03:21:26;40.08;;;26.83;;
64520;SDS011;50896;46.714;17.322;2024-02-28T03:23:53;44.33;;;27.70;;
64520;SDS011;50896;46.714;17.322;2024-02-28T03:26:19;43.42;;;27.02;;
64520;SDS011;50896;46.714;17.322;2024-02-28T03:28:46;39.03;;;25.40;;
64520;SDS011;50896;46.714;17.322;2024-02-28T03:31:13;37.90;;;24.85;;
64520;SDS011;50896;46.714;17.322;2024-02-28T03:33:40;39.30;;;24.70;;
64520;SDS011;50896;46.714;17.322;2024-02-28T03:36:07;40.42;;;24.50;;
64520;SDS011;50896;46.714;17.322;2024-02-28T03:38:34;37.45;;;25.08;;
64520;SDS011;50896;46.714;17.322;2024-02-28T03:41:01;46.47;;;26.13;;
64520;SDS011;50896;46.714;17.322;2024-02-28T03:43:28;38.97;;;26.75;;
64520;SDS011;50896;46.714;17.322;2024-02-28T03:45:55;41.78;;;24.90;;
64520;SDS011;50896;46.714;17.322;2024-02-28T03:48:22;41.70;;;25.13;;
64520;SDS011;50896;46.714;17.322;2024-02-28T03:50:49;35.03;;;24.52;;
64520;SDS011;50896;46.714;17.322;2024-02-28T03:53:17;40.72;;;25.38;;
64520;SDS011;50896;46.714;17.322;2024-02-28T03:55:44;39.60;;;24.80;;
64520;SDS011;50896;46.714;17.322;2024-02-28T03:58:11;38.25;;;25.65;;
64520;SDS011;50896;46.714;17.322;2024-02-28T04:00:37;43.03;;;25.38;;
64520;SDS011;50896;46.714;17.322;2024-02-28T04:03:05;39.75;;;25.23;;
64520;SDS011;50896;46.714;17.322;2024-02-28T04:05:32;41.65;;;27.15;;
64520;SDS011;50896;46.714;17.322;2024-02-28T04:07:58;41.35;;;26.27;;
64520;SDS011;50896;46.714;17.322;2024-02-28T04:10:25;44.72;;;25.35;;
64520;SDS011;50896;46.714;17.322;2024-02-28T04:12:52;42.10;;;26.83;;
64520;SDS011;50896;46.714;17.322;2024-02-28T04:15:19;44.67;;;26.73;;
64520;SDS011;50896;46.714;17.322;2024-02-28T04:17:46;40.22;;;24.70;;
64520;SDS011;50896;46.714;17.322;2024-02-28T04:20:13;38.10;;;23.95;;
64520;SDS011;50896;46.714;17.322;2024-02-28T04:22:40;47.17;;;26.67;;
64520;SDS011;50896;46.714;17.322;2024-02-28T04:25:07;49.38;;;27.48;;
64520;SDS011;50896;46.714;17.322;2024-02-28T04:27:36;45.38;;;26.50;;
64520;SDS011;50896;46.714;17.322;2024-02-28T04:30:04;42.58;;;26.88;;
64520;SDS011;50896;46.714;17.322;2024-02-28T04:32:31;44.85;;;28.02;;
64520;SDS011;50896;46.714;17.322;2024-02-28T04:34:58;48.10;;;29.83;;
64520;SDS011;50896;46.714;17.322;2024-02-28T04:37:25;44.92;;;30.05;;
64520;SDS011;50896;46.714;17.322;2024-02-28T04:39:53;47.78;;;30.45;;
64520;SDS011;50896;46.714;17.322;2024-02-28T04:42:21;55.97;;;32.72;;
64520;SDS011;50896;46.714;17.322;2024-02-28T04:44:47;54.42;;;32.05;;
64520;SDS011;50896;46.714;17.322;2024-02-28T04:47:14;57.17;;;34.13;;
64520;SDS011;50896;46.714;17.322;2024-02-28T04:49:45;57.63;;;34.38;;
64520;SDS011;50896;46.714;17.322;2024-02-28T04:52:11;61.70;;;35.15;;
64520;SDS011;50896;46.714;17.322;2024-02-28T04:54:39;57.63;;;36.00;;
64520;SDS011;50896;46.714;17.322;2024-02-28T04:57:07;58.17;;;35.58;;
64520;SDS011;50896;46.714;17.322;2024-02-28T04:59:34;57.92;;;35.33;;
64520;SDS011;50896;46.714;17.322;2024-02-28T05:02:01;57.95;;;33.90;;
64520;SDS011;50896;46.714;17.322;2024-02-28T05:04:28;55.70;;;32.92;;
64520;SDS011;50896;46.714;17.322;2024-02-28T05:06:55;54.80;;;35.60;;
64520;SDS011;50896;46.714;17.322;2024-02-28T05:09:22;54.95;;;33.72;;
64520;SDS011;50896;46.714;17.322;2024-02-28T05:11:49;58.13;;;34.22;;
64520;SDS011;50896;46.714;17.322;2024-02-28T05:14:16;58.17;;;35.17;;
64520;SDS011;50896;46.714;17.322;2024-02-28T05:16:42;53.95;;;33.15;;
64520;SDS011;50896;46.714;17.322;2024-02-28T05:19:10;56.35;;;34.72;;
64520;SDS011;50896;46.714;17.322;2024-02-28T05:21:40;53.28;;;33.15;;
64520;SDS011;50896;46.714;17.322;2024-02-28T05:24:08;54.83;;;33.90;;
64520;SDS011;50896;46.714;17.322;2024-02-28T05:26:36;56.25;;;34.45;;
64520;SDS011;50896;46.714;17.322;2024-02-28T05:29:04;56.05;;;36.15;;
64520;SDS011;50896;46.714;17.322;2024-02-28T05:31:31;57.35;;;33.42;;
64520;SDS011;50896;46.714;17.322;2024-02-28T05:33:58;60.65;;;35.00;;
64520;SDS011;50896;46.714;17.322;2024-02-28T05:36:26;56.10;;;35.40;;
64520;SDS011;50896;46.714;17.322;2024-02-28T05:38:55;60.65;;;35.05;;
64520;SDS011;50896;46.714;17.322;2024-02-28T05:41:24;55.20;;;34.20;;
64520;SDS011;50896;46.714;17.322;2024-02-28T05:43:51;58.58;;;34.53;;
64520;SDS011;50896;46.714;17.322;2024-02-28T05:46:18;56.80;;;36.03;;
64520;SDS011;50896;46.714;17.322;2024-02-28T05:48:46;62.53;;;36.53;;
64520;SDS011;50896;46.714;17.322;2024-02-28T05:51:13;59.75;;;36.92;;
64520;SDS011;50896;46.714;17.322;2024-02-28T05:53:40;59.00;;;36.63;;
64520;SDS011;50896;46.714;17.322;2024-02-28T05:56:07;60.05;;;37.58;;
64520;SDS011;50896;46.714;17.322;2024-02-28T05:58:43;62.15;;;36.90;;
64520;SDS011;50896;46.714;17.322;2024-02-28T06:01:11;60.35;;;37.22;;
64520;SDS011;50896;46.714;17.322;2024-02-28T06:03:39;69.55;;;38.50;;
64520;SDS011;50896;46.714;17.322;2024-02-28T06:06:06;64.22;;;37.40;;
64520;SDS011;50896;46.714;17.322;2024-02-28T06:08:33;51.92;;;34.25;;
64520;SDS011;50896;46.714;17.322;2024-02-28T06:11:01;56.88;;;35.65;;
64520;SDS011;50896;46.714;17.322;2024-02-28T06:13:28;57.40;;;33.63;;
64520;SDS011;50896;46.714;17.322;2024-02-28T06:15:55;61.20;;;36.08;;
64520;SDS011;50896;46.714;17.322;2024-02-28T06:18:23;63.83;;;34.47;;
64520;SDS011;50896;46.714;17.322;2024-02-28T06:20:53;71.43;;;40.50;;
64520;SDS011;50896;46.714;17.322;2024-02-28T06:23:22;67.00;;;37.80;;
64520;SDS011;50896;46.714;17.322;2024-02-28T06:25:55;60.13;;;35.35;;
64520;SDS011;50896;46.714;17.322;2024-02-28T06:28:23;52.90;;;33.45;;
64520;SDS011;50896;46.714;17.322;2024-02-28T06:30:50;56.88;;;33.50;;
64520;SDS011;50896;46.714;17.322;2024-02-28T06:33:18;49.97;;;31.05;;
64520;SDS011;50896;46.714;17.322;2024-02-28T06:35:46;48.03;;;28.92;;
64520;SDS011;50896;46.714;17.322;2024-02-28T06:38:13;45.15;;;29.75;;
64520;SDS011;50896;46.714;17.322;2024-02-28T06:40:39;44.20;;;27.25;;
64520;SDS011;50896;46.714;17.322;2024-02-28T06:43:08;36.55;;;25.70;;
64520;SDS011;50896;46.714;17.322;2024-02-28T06:45:34;32.50;;;23.08;;
64520;SDS011;50896;46.714;17.322;2024-02-28T06:48:04;26.77;;;21.02;;
64520;SDS011;50896;46.714;17.322;2024-02-28T06:50:31;29.08;;;22.50;;
64520;SDS011;50896;46.714;17.322;2024-02-28T06:52:58;30.45;;;22.67;;
64520;SDS011;50896;46.714;17.322;2024-02-28T06:55:25;30.60;;;23.73;;
64520;SDS011;50896;46.714;17.322;2024-02-28T06:57:51;35.13;;;23.08;;
64520;SDS011;50896;46.714;17.322;2024-02-28T07:00:18;45.42;;;27.10;;
64520;SDS011;50896;46.714;17.322;2024-02-28T07:02:46;47.88;;;28.50;;
64520;SDS011;50896;46.714;17.322;2024-02-28T07:05:13;50.95;;;30.55;;
64520;SDS011;50896;46.714;17.322;2024-02-28T07:07:40;41.50;;;26.17;;
64520;SDS011;50896;46.714;17.322;2024-02-28T07:10:07;36.47;;;24.60;;
64520;SDS011;50896;46.714;17.322;2024-02-28T07:12:34;36.25;;;24.90;;
64520;SDS011;50896;46.714;17.322;2024-02-28T07:15:00;34.78;;;26.77;;
64520;SDS011;50896;46.714;17.322;2024-02-28T07:17:28;36.42;;;27.33;;
64520;SDS011;50896;46.714;17.322;2024-02-28T07:19:55;35.88;;;25.95;;
64520;SDS011;50896;46.714;17.322;2024-02-28T07:22:22;34.25;;;24.83;;
64520;SDS011;50896;46.714;17.322;2024-02-28T07:24:48;34.05;;;24.92;;
64520;SDS011;50896;46.714;17.322;2024-02-28T07:27:15;36.10;;;26.70;;
64520;SDS011;50896;46.714;17.322;2024-02-28T07:29:42;38.70;;;27.23;;
64520;SDS011;50896;46.714;17.322;2024-02-28T07:32:10;40.63;;;27.77;;
64520;SDS011;50896;46.714;17.322;2024-02-28T07:34:38;42.33;;;28.33;;
64520;SDS011;50896;46.714;17.322;2024-02-28T07:37:06;51.10;;;30.35;;
64520;SDS011;50896;46.714;17.322;2024-02-28T07:39:33;45.60;;;29.02;;
64520;SDS011;50896;46.714;17.322;2024-02-28T07:42:00;48.88;;;30.85;;
64520;SDS011;50896;46.714;17.322;2024-02-28T07:44:26;49.42;;;31.33;;
64520;SDS011;50896;46.714;17.322;2024-02-28T07:46:57;45.55;;;29.70;;
64520;SDS011;50896;46.714;17.322;2024-02-28T07:49:26;48.88;;;31.45;;
64520;SDS011;50896;46.714;17.322;2024-02-28T07:51:54;49.17;;;32.67;;
64520;SDS011;50896;46.714;17.322;2024-02-28T07:54:21;50.28;;;31.83;;
64520;SDS011;50896;46.714;17.322;2024-02-28T07:56:48;51.05;;;32.17;;
64520;SDS011;50896;46.714;17.322;2024-02-28T07:59:15;49.80;;;31.30;;
64520;SDS011;50896;46.714;17.322;2024-02-28T08:01:42;49.70;;;30.50;;
64520;SDS011;50896;46.714;17.322;2024-02-28T08:04:10;47.72;;;31.40;;
64520;SDS011;50896;46.714;17.322;2024-02-28T08:06:37;52.80;;;33.75;;
64520;SDS011;50896;46.714;17.322;2024-02-28T08:09:04;48.67;;;31.92;;
64520;SDS011;50896;46.714;17.322;2024-02-28T08:11:30;49.17;;;31.13;;
64520;SDS011;50896;46.714;17.322;2024-02-28T08:13:57;45.70;;;28.92;;
64520;SDS011;50896;46.714;17.322;2024-02-28T08:16:24;39.58;;;28.00;;
64520;SDS011;50896;46.714;17.322;2024-02-28T08:18:54;42.95;;;30.17;;
64520;SDS011;50896;46.714;17.322;2024-02-28T08:21:21;44.95;;;30.80;;
64520;SDS011;50896;46.714;17.322;2024-02-28T08:23:48;45.80;;;30.45;;
64520;SDS011;50896;46.714;17.322;2024-02-28T08:26:15;45.67;;;30.42;;
64520;SDS011;50896;46.714;17.322;2024-02-28T08:28:42;41.63;;;29.17;;
64520;SDS011;50896;46.714;17.322;2024-02-28T08:31:09;45.03;;;30.55;;
64520;SDS011;50896;46.714;17.322;2024-02-28T08:33:36;46.65;;;30.02;;
64520;SDS011;50896;46.714;17.322;2024-02-28T08:36:03;51.85;;;31.42;;
64520;SDS011;50896;46.714;17.322;2024-02-28T08:38:31;47.53;;;32.28;;
64520;SDS011;50896;46.714;17.322;2024-02-28T08:40:57;45.15;;;28.40;;
64520;SDS011;50896;46.714;17.322;2024-02-28T08:43:24;49.13;;;31.55;;
64520;SDS011;50896;46.714;17.322;2024-02-28T08:45:51;47.05;;;29.85;;
64520;SDS011;50896;46.714;17.322;2024-02-28T08:48:18;41.45;;;28.83;;
64520;SDS011;50896;46.714;17.322;2024-02-28T08:50:45;48.70;;;28.77;;
64520;SDS011;50896;46.714;17.322;2024-02-28T08:53:12;41.78;;;26.88;;
64520;SDS011;50896;46.714;17.322;2024-02-28T08:55:39;45.28;;;27.65;;
64520;SDS011;50896;46.714;17.322;2024-02-28T08:58:05;40.78;;;27.30;;
64520;SDS011;50896;46.714;17.322;2024-02-28T09:00:32;42.05;;;26.10;;
64520;SDS011;50896;46.714;17.322;2024-02-28T09:02:59;41.50;;;26.48;;
64520;SDS011;50896;46.714;17.322;2024-02-28T09:05:26;42.88;;;25.98;;
64520;SDS011;50896;46.714;17.322;2024-02-28T09:07:53;43.25;;;27.08;;
64520;SDS011;50896;46.714;17.322;2024-02-28T09:10:21;38.92;;;25.75;;
64520;SDS011;50896;46.714;17.322;2024-02-28T09:12:51;40.42;;;26.23;;
64520;SDS011;50896;46.714;17.322;2024-02-28T09:15:18;46.70;;;26.65;;
64520;SDS011;50896;46.714;17.322;2024-02-28T09:17:45;42.08;;;25.58;;
64520;SDS011;50896;46.714;17.322;2024-02-28T09:20:12;45.15;;;27.10;;
64520;SDS011;50896;46.714;17.322;2024-02-28T09:22:39;35.20;;;24.27;;
64520;SDS011;50896;46.714;17.322;2024-02-28T09:25:06;41.13;;;26.08;;
64520;SDS011;50896;46.714;17.322;2024-02-28T09:27:36;40.30;;;25.40;;
64520;SDS011;50896;46.714;17.322;2024-02-28T09:30:03;39.50;;;25.35;;
64520;SDS011;50896;46.714;17.322;2024-02-28T09:32:30;40.53;;;24.95;;
64520;SDS011;50896;46.714;17.322;2024-02-28T09:34:58;44.78;;;26.80;;
64520;SDS011;50896;46.714;17.322;2024-02-28T09:37:25;41.22;;;25.92;;
64520;SDS011;50896;46.714;17.322;2024-02-28T09:39:52;40.30;;;26.52;;
64520;SDS011;50896;46.714;17.322;2024-02-28T09:42:19;37.28;;;25.27;;
64520;SDS011;50896;46.714;17.322;2024-02-28T09:44:47;41.25;;;26.10;;
64520;SDS011;50896;46.714;17.322;2024-02-28T09:47:15;41.38;;;25.80;;
64520;SDS011;50896;46.714;17.322;2024-02-28T09:49:42;37.88;;;25.38;;
64520;SDS011;50896;46.714;17.322;2024-02-28T09:52:11;40.73;;;25.07;;
64520;SDS011;50896;46.714;17.322;2024-02-28T09:54:38;38.47;;;24.65;;
64520;SDS011;50896;46.714;17.322;2024-02-28T09:57:08;36.92;;;25.10;;
64520;SDS011;50896;46.714;17.322;2024-02-28T09:59:37;42.47;;;25.40;;
64520;SDS011;50896;46.714;17.322;2024-02-28T10:02:20;41.10;;;26.08;;
64520;SDS011;50896;46.714;17.322;2024-02-28T10:04:49;36.10;;;24.77;;
64520;SDS011;50896;46.714;17.322;2024-02-28T10:07:17;40.65;;;25.25;;
64520;SDS011;50896;46.714;17.322;2024-02-28T10:09:44;40.40;;;25.50;;
64520;SDS011;50896;46.714;17.322;2024-02-28T10:12:11;41.00;;;24.45;;
64520;SDS011;50896;46.714;17.322;2024-02-28T10:14:38;33.05;;;23.75;;
64520;SDS011;50896;46.714;17.322;2024-02-28T10:17:06;34.88;;;24.23;;
64520;SDS011;50896;46.714;17.322;2024-02-28T10:19:34;37.85;;;23.85;;
64520;SDS011;50896;46.714;17.322;2024-02-28T10:22:01;37.92;;;24.60;;
64520;SDS011;50896;46.714;17.322;2024-02-28T10:24:28;37.40;;;24.83;;
64520;SDS011;50896;46.714;17.322;2024-02-28T10:26:55;38.72;;;24.48;;
64520;SDS011;50896;46.714;17.322;2024-02-28T10:29:22;38.92;;;24.98;;
64520;SDS011;50896;46.714;17.322;2024-02-28T10:31:51;40.53;;;23.77;;
64520;SDS011;50896;46.714;17.322;2024-02-28T10:34:18;39.00;;;24.27;;
64520;SDS011;50896;46.714;17.322;2024-02-28T10:36:45;42.97;;;25.88;;
64520;SDS011;50896;46.714;17.322;2024-02-28T10:39:13;41.50;;;25.25;;
64520;SDS011;50896;46.714;17.322;2024-02-28T10:41:41;39.35;;;24.23;;
64520;SDS011;50896;46.714;17.322;2024-02-28T10:44:09;36.53;;;22.77;;
64520;SDS011;50896;46.714;17.322;2024-02-28T10:46:39;41.22;;;24.00;;
64520;SDS011;50896;46.714;17.322;2024-02-28T10:49:06;35.70;;;22.88;;
64520;SDS011;50896;46.714;17.322;2024-02-28T10:51:35;38.75;;;23.83;;
64520;SDS011;50896;46.714;17.322;2024-02-28T10:54:10;36.28;;;23.17;;
64520;SDS011;50896;46.714;17.322;2024-02-28T10:56:41;42.25;;;24.85;;
64520;SDS011;50896;46.714;17.322;2024-02-28T10:59:10;39.22;;;23.80;;
64520;SDS011;50896;46.714;17.322;2024-02-28T11:01:40;31.73;;;23.23;;
64520;SDS011;50896;46.714;17.322;2024-02-28T11:04:12;37.05;;;23.65;;
64520;SDS011;50896;46.714;17.322;2024-02-28T11:06:50;37.15;;;24.10;;
64520;SDS011;50896;46.714;17.322;2024-02-28T11:09:22;32.33;;;22.83;;
64520;SDS011;50896;46.714;17.322;2024-02-28T11:11:53;37.50;;;24.27;;
64520;SDS011;50896;46.714;17.322;2024-02-28T11:14:20;39.63;;;23.60;;
64520;SDS011;50896;46.714;17.322;2024-02-28T11:17:03;35.03;;;23.83;;
64520;SDS011;50896;46.714;17.322;2024-02-28T11:19:32;37.15;;;23.83;;
64520;SDS011;50896;46.714;17.322;2024-02-28T11:22:02;37.40;;;23.10;;
64520;SDS011;50896;46.714;17.322;2024-02-28T11:24:33;37.90;;;23.95;;
64520;SDS011;50896;46.714;17.322;2024-02-28T11:27:01;36.72;;;22.88;;
64520;SDS011;50896;46.714;17.322;2024-02-28T11:29:32;40.85;;;24.98;;
64520;SDS011;50896;46.714;17.322;2024-02-28T11:31:59;33.33;;;23.88;;
64520;SDS011;50896;46.714;17.322;2024-02-28T11:34:26;35.05;;;23.92;;
64520;SDS011;50896;46.714;17.322;2024-02-28T11:36:53;38.25;;;24.00;;
64520;SDS011;50896;46.714;17.322;2024-02-28T11:39:22;35.90;;;23.75;;
64520;SDS011;50896;46.714;17.322;2024-02-28T11:41:52;37.10;;;23.73;;
64520;SDS011;50896;46.714;17.322;2024-02-28T11:44:19;38.00;;;24.98;;
64520;SDS011;50896;46.714;17.322;2024-02-28T11:46:46;42.40;;;26.83;;
64520;SDS011;50896;46.714;17.322;2024-02-28T11:49:14;41.83;;;26.27;;
64520;SDS011;50896;46.714;17.322;2024-02-28T11:51:45;41.65;;;26.63;;
64520;SDS011;50896;46.714;17.322;2024-02-28T11:54:12;39.47;;;27.23;;
64520;SDS011;50896;46.714;17.322;2024-02-28T11:56:40;44.30;;;27.95;;
64520;SDS011;50896;46.714;17.322;2024-02-28T11:59:08;45.65;;;27.60;;
64520;SDS011;50896;46.714;17.322;2024-02-28T12:01:38;48.35;;;29.25;;
64520;SDS011;50896;46.714;17.322;2024-02-28T12:06:34;43.60;;;28.65;;
64520;SDS011;50896;46.714;17.322;2024-02-28T12:09:08;42.40;;;27.92;;
64520;SDS011;50896;46.714;17.322;2024-02-28T12:11:41;40.63;;;26.13;;
64520;SDS011;50896;46.714;17.322;2024-02-28T12:14:09;38.83;;;25.85;;
64520;SDS011;50896;46.714;17.322;2024-02-28T12:16:36;37.05;;;25.45;;
64520;SDS011;50896;46.714;17.322;2024-02-28T12:19:07;40.50;;;26.90;;
64520;SDS011;50896;46.714;17.322;2024-02-28T12:21:36;40.78;;;26.63;;
64520;SDS011;50896;46.714;17.322;2024-02-28T12:24:12;36.60;;;25.42;;
64520;SDS011;50896;46.714;17.322;2024-02-28T12:26:40;42.90;;;27.30;;
64520;SDS011;50896;46.714;17.322;2024-02-28T12:29:07;38.05;;;27.17;;
64520;SDS011;50896;46.714;17.322;2024-02-28T12:31:36;36.95;;;26.15;;
64520;SDS011;50896;46.714;17.322;2024-02-28T12:34:03;35.95;;;25.73;;
64520;SDS011;50896;46.714;17.322;2024-02-28T12:39:00;39.08;;;25.63;;
64520;SDS011;50896;46.714;17.322;2024-02-28T12:41:27;39.53;;;25.10;;
64520;SDS011;50896;46.714;17.322;2024-02-28T12:43:55;38.03;;;24.30;;
64520;SDS011;50896;46.714;17.322;2024-02-28T12:46:22;37.22;;;25.85;;
64520;SDS011;50896;46.714;17.322;2024-02-28T12:48:48;39.97;;;25.60;;
64520;SDS011;50896;46.714;17.322;2024-02-28T12:54:09;33.45;;;22.67;;
64520;SDS011;50896;46.714;17.322;2024-02-28T12:56:37;38.05;;;22.02;;
64520;SDS011;50896;46.714;17.322;2024-02-28T12:59:04;36.58;;;21.88;;
64520;SDS011;50896;46.714;17.322;2024-02-28T13:01:33;35.78;;;22.90;;
64520;SDS011;50896;46.714;17.322;2024-02-28T13:04:01;37.35;;;24.60;;
64520;SDS011;50896;46.714;17.322;2024-02-28T13:06:28;38.47;;;24.02;;
64520;SDS011;50896;46.714;17.322;2024-02-28T13:08:55;40.50;;;24.05;;
64520;SDS011;50896;46.714;17.322;2024-02-28T13:11:23;33.42;;;23.90;;
64520;SDS011;50896;46.714;17.322;2024-02-28T13:13:50;36.05;;;24.52;;
64520;SDS011;50896;46.714;17.322;2024-02-28T13:16:19;47.88;;;28.42;;
64520;SDS011;50896;46.714;17.322;2024-02-28T13:18:46;44.00;;;27.33;;
64520;SDS011;50896;46.714;17.322;2024-02-28T13:21:13;42.47;;;28.67;;
64520;SDS011;50896;46.714;17.322;2024-02-28T13:23:40;44.35;;;28.52;;
64520;SDS011;50896;46.714;17.322;2024-02-28T13:26:07;33.20;;;21.38;;
64520;SDS011;50896;46.714;17.322;2024-02-28T13:28:34;29.85;;;18.17;;
64520;SDS011;50896;46.714;17.322;2024-02-28T13:31:02;26.83;;;17.77;;
64520;SDS011;50896;46.714;17.322;2024-02-28T13:33:33;30.02;;;18.45;;
64520;SDS011;50896;46.714;17.322;2024-02-28T13:36:02;26.88;;;17.25;;
64520;SDS011;50896;46.714;17.322;2024-02-28T13:38:29;24.60;;;17.23;;
64520;SDS011;50896;46.714;17.322;2024-02-28T13:40:56;28.52;;;17.90;;
64520;SDS011;50896;46.714;17.322;2024-02-28T13:43:23;28.17;;;17.60;;
64520;SDS011;50896;46.714;17.322;2024-02-28T13:45:50;27.15;;;18.60;;
64520;SDS011;50896;46.714;17.322;2024-02-28T13:48:22;31.25;;;18.92;;
64520;SDS011;50896;46.714;17.322;2024-02-28T13:50:51;28.25;;;17.88;;
64520;SDS011;50896;46.714;17.322;2024-02-28T13:53:18;29.30;;;18.27;;
64520;SDS011;50896;46.714;17.322;2024-02-28T13:55:45;26.55;;;18.30;;
64520;SDS011;50896;46.714;17.322;2024-02-28T13:58:12;26.20;;;17.20;;
64520;SDS011;50896;46.714;17.322;2024-02-28T14:00:40;36.75;;;19.02;;
64520;SDS011;50896;46.714;17.322;2024-02-28T14:03:07;28.10;;;18.20;;
64520;SDS011;50896;46.714;17.322;2024-02-28T14:05:34;28.85;;;18.48;;
64520;SDS011;50896;46.714;17.322;2024-02-28T14:08:01;30.52;;;19.10;;
64520;SDS011;50896;46.714;17.322;2024-02-28T14:10:30;30.38;;;18.75;;
64520;SDS011;50896;46.714;17.322;2024-02-28T14:12:57;32.88;;;18.85;;
64520;SDS011;50896;46.714;17.322;2024-02-28T14:15:24;30.73;;;18.25;;
64520;SDS011;50896;46.714;17.322;2024-02-28T14:20:21;24.73;;;16.58;;
64520;SDS011;50896;46.714;17.322;2024-02-28T14:22:48;29.60;;;17.90;;